Terminal Aerodrome Forecast
Issued by NWS Sterling, VA

Current Version | Previous Version | Text Only | Print | Product List | Glossary Off
Versions: 1 2 3 4 5 6 7 8 9 10 11 12 13 14 15 16 17 18 19 20 21 22 23 24

404
FTUS41 KLWX 282005 AAA
TAFIAD
TAF AMD
KIAD 282005Z 2820/2924 35017G21KT 5SM -TSRA SCT040CB BKN090
      TEMPO 2820/2822 1SM TSRA BKN010CB
     FM290300 11004KT 3SM TSRA OVC060CB
     FM290600 VRB03KT 3SM SHRA OVC050
     FM290900 27004KT P6SM SHRA OVC040
     FM291500 32010KT P6SM BKN040
     FM292300 34006KT P6SM BKN050=

USA.gov is the U.S. government's official web portal to all federal, state and local government web resources and services.